createdAt,value
2022-12-13T00:00:53.827Z,-9.60
2022-12-13T00:01:59.592Z,-9.63
2022-12-13T00:03:01.881Z,-9.67
2022-12-13T00:04:08.438Z,-9.63
2022-12-13T00:05:11.266Z,-9.65
2022-12-13T00:06:16.546Z,-9.62
2022-12-13T00:07:21.474Z,-9.58
2022-12-13T00:08:23.745Z,-9.57
2022-12-13T00:09:28.601Z,-9.60
2022-12-13T00:10:31.093Z,-9.64
2022-12-13T00:11:36.160Z,-9.66
2022-12-13T00:12:38.542Z,-9.72
2022-12-13T00:13:44.510Z,-9.69
2022-12-13T00:14:51.850Z,-9.78
2022-12-13T00:15:58.279Z,-9.75
2022-12-13T00:17:06.707Z,-9.76
2022-12-13T00:18:09.006Z,-9.81
2022-12-13T00:19:17.319Z,-9.82
2022-12-13T00:20:19.695Z,-9.84
2022-12-13T00:21:26.487Z,-9.84
2022-12-13T00:22:28.822Z,-9.80
2022-12-13T00:23:34.704Z,-9.79
2022-12-13T00:24:40.212Z,-9.76
2022-12-13T00:25:49.290Z,-9.78
2022-12-13T00:26:57.936Z,-9.82
2022-12-13T00:28:00.679Z,-9.88
2022-12-13T00:29:07.861Z,-9.88
2022-12-13T00:30:13.535Z,-9.86
2022-12-13T00:31:53.526Z,-9.84
2022-12-13T00:32:43.921Z,-9.75
2022-12-13T00:33:46.297Z,-9.74
2022-12-13T00:34:51.101Z,-9.80
2022-12-13T00:35:53.704Z,-9.70
2022-12-13T00:37:04.954Z,-9.76
2022-12-13T00:38:07.341Z,-9.71
2022-12-13T00:39:14.140Z,-9.68
2022-12-13T00:40:16.369Z,-9.74
2022-12-13T00:41:23.477Z,-9.76
2022-12-13T00:42:28.326Z,-9.75
2022-12-13T00:43:30.611Z,-9.66
2022-12-13T00:44:35.807Z,-9.65
2022-12-13T00:45:41.256Z,-9.60
2022-12-13T00:46:46.478Z,-9.53
2022-12-13T00:47:51.290Z,-9.51
2022-12-13T00:48:55.072Z,-9.51
2022-12-13T00:50:00.235Z,-9.49
2022-12-13T00:51:06.975Z,-9.49
2022-12-13T00:52:11.852Z,-9.50
2022-12-13T00:53:14.188Z,-9.48
2022-12-13T00:54:19.690Z,-9.44
2022-12-13T00:55:24.408Z,-9.53
2022-12-13T00:56:29.198Z,-9.52
2022-12-13T00:57:34.160Z,-9.42
2022-12-13T00:58:50.173Z,-9.36
2022-12-13T00:59:56.914Z,-9.30
2022-12-13T01:01:29.274Z,-9.35
2022-12-13T01:02:47.764Z,-9.32
2022-12-13T01:04:01.938Z,-9.31
2022-12-13T01:05:11.354Z,-9.26
2022-12-13T01:06:34.563Z,-9.25
2022-12-13T01:07:47.721Z,-9.23
2022-12-13T01:08:58.578Z,-9.26
2022-12-13T01:10:07.512Z,-9.25
2022-12-13T01:11:24.594Z,-9.25
2022-12-13T01:12:38.997Z,-9.27
2022-12-13T01:13:42.303Z,-9.28
2022-12-13T01:14:56.285Z,-9.26
2022-12-13T01:16:19.056Z,-9.31
2022-12-13T01:19:00.883Z,-9.38
2022-12-13T01:20:21.793Z,-9.40
2022-12-13T01:21:38.644Z,-9.37
2022-12-13T01:22:46.161Z,-9.40
2022-12-13T01:24:16.724Z,-9.38
2022-12-13T01:25:30.582Z,-9.42
2022-12-13T01:26:58.640Z,-9.43
2022-12-13T01:28:11.993Z,-9.43
2022-12-13T01:29:25.938Z,-9.39
2022-12-13T01:30:36.032Z,-9.39
2022-12-13T01:31:47.756Z,-9.43
2022-12-13T01:32:57.458Z,-9.43
2022-12-13T01:34:10.841Z,-9.44
2022-12-13T01:35:21.775Z,-9.43
2022-12-13T01:36:29.846Z,-9.41
2022-12-13T01:39:03.767Z,-9.45
2022-12-13T01:40:27.663Z,-9.46
2022-12-13T01:41:40.504Z,-9.52
2022-12-13T01:42:52.149Z,-9.49
2022-12-13T01:44:03.785Z,-9.47
2022-12-13T01:45:39.882Z,-9.48
2022-12-13T01:46:55.046Z,-9.47
2022-12-13T01:48:19.170Z,-9.49
2022-12-13T01:49:29.290Z,-9.42
2022-12-13T01:50:47.751Z,-9.37
2022-12-13T01:52:06.558Z,-9.39
2022-12-13T01:53:28.311Z,-9.49
2022-12-13T01:54:46.821Z,-9.49
2022-12-13T01:56:07.946Z,-9.53
2022-12-13T01:57:18.311Z,-9.52
2022-12-13T01:58:33.865Z,-9.53
2022-12-13T01:59:40.402Z,-9.56
2022-12-13T02:00:56.771Z,-9.54
2022-12-13T02:02:10.461Z,-9.49
2022-12-13T02:03:25.941Z,-9.54
2022-12-13T02:04:44.238Z,-9.48
2022-12-13T02:06:00.836Z,-9.46
2022-12-13T02:07:04.028Z,-9.42
2022-12-13T02:08:19.858Z,-9.41
2022-12-13T02:09:39.335Z,-9.38
2022-12-13T02:11:15.449Z,-9.34
2022-12-13T02:12:29.909Z,-9.31
2022-12-13T02:13:47.220Z,-9.28
2022-12-13T02:14:53.769Z,-9.27
2022-12-13T02:16:21.959Z,-9.27
2022-12-13T02:17:34.453Z,-9.29
2022-12-13T02:19:12.112Z,-9.29
2022-12-13T02:20:48.009Z,-9.29
2022-12-13T02:22:06.601Z,-9.26
2022-12-13T02:23:46.491Z,-9.34
2022-12-13T02:25:29.490Z,-9.35
2022-12-13T02:26:53.421Z,-9.37
2022-12-13T02:28:30.614Z,-9.31
2022-12-13T02:30:02.912Z,-9.29
2022-12-13T02:31:27.078Z,-9.32
2022-12-13T02:32:41.788Z,-9.39
2022-12-13T02:34:13.664Z,-9.36
2022-12-13T02:35:40.998Z,-9.42
2022-12-13T02:37:17.607Z,-9.32
2022-12-13T02:38:38.597Z,-9.34
2022-12-13T02:39:50.489Z,-9.39
2022-12-13T02:41:05.563Z,-9.33
2022-12-13T02:42:31.743Z,-9.35
2022-12-13T02:43:45.709Z,-9.39
2022-12-13T02:45:01.867Z,-9.37
2022-12-13T02:46:12.876Z,-9.42
2022-12-13T02:47:30.134Z,-9.42
2022-12-13T02:48:42.242Z,-9.48
2022-12-13T02:50:00.280Z,-9.48
2022-12-13T02:51:10.826Z,-9.47
2022-12-13T02:52:22.423Z,-9.58
2022-12-13T02:53:27.582Z,-9.61
2022-12-13T02:54:37.120Z,-9.63
2022-12-13T02:55:45.562Z,-9.65
2022-12-13T02:57:01.369Z,-9.62
2022-12-13T02:58:21.651Z,-9.60
2022-12-13T02:59:27.411Z,-9.60
2022-12-13T03:00:54.573Z,-9.63
2022-12-13T03:02:30.784Z,-9.62
2022-12-13T03:03:51.353Z,-9.66
2022-12-13T03:05:35.907Z,-9.68
2022-12-13T03:06:58.386Z,-9.65
2022-12-13T03:08:26.114Z,-9.63
2022-12-13T03:09:48.550Z,-9.63
2022-12-13T03:11:00.176Z,-9.72
2022-12-13T03:12:39.188Z,-9.75
2022-12-13T03:13:54.358Z,-9.68
2022-12-13T03:15:04.003Z,-9.62
2022-12-13T03:16:23.007Z,-9.62
2022-12-13T03:17:37.096Z,-9.59
2022-12-13T03:18:42.194Z,-9.58
2022-12-13T03:19:47.735Z,-9.58
2022-12-13T03:20:57.609Z,-9.49
2022-12-13T03:22:11.958Z,-9.50
2022-12-13T03:23:21.618Z,-9.49
2022-12-13T03:24:30.217Z,-9.47
2022-12-13T03:25:34.934Z,-9.48
2022-12-13T03:26:51.843Z,-9.43
2022-12-13T03:28:15.678Z,-9.37
2022-12-13T03:29:24.793Z,-9.40
2022-12-13T03:30:29.359Z,-9.39
2022-12-13T03:31:34.689Z,-9.39
2022-12-13T03:32:40.092Z,-9.36
2022-12-13T03:33:49.343Z,-9.38
2022-12-13T03:35:00.589Z,-9.37
2022-12-13T03:36:15.557Z,-9.41
2022-12-13T03:37:23.633Z,-9.42
2022-12-13T03:38:26.852Z,-9.48
2022-12-13T03:39:31.975Z,-9.54
2022-12-13T03:40:37.886Z,-9.63
2022-12-13T03:41:45.405Z,-9.63
2022-12-13T03:42:48.617Z,-9.68
2022-12-13T03:43:54.030Z,-9.69
2022-12-13T03:44:56.394Z,-9.73
2022-12-13T03:46:01.507Z,-9.71
2022-12-13T03:47:09.743Z,-9.69
2022-12-13T03:48:14.726Z,-9.72
2022-12-13T03:49:27.326Z,-9.74
2022-12-13T03:50:40.202Z,-9.68
2022-12-13T03:51:45.235Z,-9.63
2022-12-13T03:52:48.136Z,-9.66
2022-12-13T03:53:53.172Z,-9.70
2022-12-13T03:54:55.543Z,-9.69
2022-12-13T03:56:01.481Z,-9.65
2022-12-13T03:57:04.069Z,-9.62
2022-12-13T03:58:08.956Z,-9.65
2022-12-13T03:59:17.949Z,-9.65
2022-12-13T04:00:20.530Z,-9.65
2022-12-13T04:01:25.609Z,-9.68
2022-12-13T04:02:30.497Z,-9.64
2022-12-13T04:03:40.719Z,-9.65
2022-12-13T04:04:43.049Z,-9.68
2022-12-13T04:05:48.157Z,-9.69
2022-12-13T04:06:56.224Z,-9.72
2022-12-13T04:08:01.205Z,-9.70
2022-12-13T04:09:06.765Z,-9.60
2022-12-13T04:10:25.569Z,-9.56
2022-12-13T04:11:44.210Z,-9.59
2022-12-13T04:13:01.515Z,-9.56
2022-12-13T04:14:09.160Z,-9.57
2022-12-13T04:15:11.580Z,-9.61
2022-12-13T04:16:16.578Z,-9.58
2022-12-13T04:17:19.025Z,-9.64
2022-12-13T04:18:24.072Z,-9.57
2022-12-13T04:19:29.016Z,-9.53
2022-12-13T04:20:40.554Z,-9.50
2022-12-13T04:21:50.269Z,-9.55
2022-12-13T04:23:09.921Z,-9.52
2022-12-13T04:24:31.929Z,-9.58
2022-12-13T04:25:42.760Z,-9.63
2022-12-13T04:26:49.707Z,-9.62
2022-12-13T04:27:57.697Z,-9.61
2022-12-13T04:29:06.879Z,-9.60
2022-12-13T04:30:19.719Z,-9.56
2022-12-13T04:31:33.316Z,-9.59
2022-12-13T04:32:41.371Z,-9.54
2022-12-13T04:33:50.087Z,-9.55
2022-12-13T04:35:08.075Z,-9.53
2022-12-13T04:36:30.896Z,-9.54
2022-12-13T04:37:48.839Z,-9.58
2022-12-13T04:39:22.256Z,-9.64
2022-12-13T04:40:27.975Z,-9.62
2022-12-13T04:41:40.310Z,-9.59
2022-12-13T04:42:43.151Z,-9.57
2022-12-13T04:43:53.295Z,-9.56
2022-12-13T04:44:59.757Z,-9.58
2022-12-13T04:46:09.693Z,-9.59
2022-12-13T04:47:46.999Z,-9.55
2022-12-13T04:48:53.748Z,-9.64
2022-12-13T04:50:05.987Z,-9.59
2022-12-13T04:51:13.036Z,-9.62
2022-12-13T04:52:22.430Z,-9.60
2022-12-13T04:53:29.436Z,-9.61
2022-12-13T04:54:35.606Z,-9.60
2022-12-13T04:55:40.608Z,-9.55
2022-12-13T04:56:45.842Z,-9.54
2022-12-13T04:57:48.213Z,-9.51
2022-12-13T04:58:53.344Z,-9.51
2022-12-13T04:59:55.776Z,-9.52
2022-12-13T05:01:02.894Z,-9.57
2022-12-13T05:02:09.905Z,-9.53
2022-12-13T05:03:15.193Z,-9.49
2022-12-13T05:04:20.441Z,-9.48
2022-12-13T05:05:28.392Z,-9.56
2022-12-13T05:06:31.056Z,-9.50
2022-12-13T05:07:36.189Z,-9.53
2022-12-13T05:08:48.275Z,-9.55
2022-12-13T05:09:50.734Z,-9.55
2022-12-13T05:10:57.709Z,-9.61
2022-12-13T05:12:00.908Z,-9.58
2022-12-13T05:13:09.221Z,-9.54
2022-12-13T05:14:11.777Z,-9.59
2022-12-13T05:15:17.105Z,-9.56
2022-12-13T05:16:24.824Z,-9.59
2022-12-13T05:17:27.203Z,-9.54
2022-12-13T05:18:32.925Z,-9.59
2022-12-13T05:19:35.146Z,-9.60
2022-12-13T05:20:42.995Z,-9.53
2022-12-13T05:21:45.361Z,-9.58
2022-12-13T05:22:50.098Z,-9.60
2022-12-13T05:23:52.400Z,-9.62
2022-12-13T05:24:57.265Z,-9.65
2022-12-13T05:26:02.473Z,-9.73
2022-12-13T05:27:24.466Z,-9.71
2022-12-13T05:28:30.881Z,-9.66
2022-12-13T05:29:33.240Z,-9.70
2022-12-13T05:30:40.445Z,-9.77
2022-12-13T05:31:42.700Z,-9.82
2022-12-13T05:32:47.726Z,-9.86
2022-12-13T05:33:49.910Z,-9.87
2022-12-13T05:34:54.675Z,-9.87
2022-12-13T05:36:02.086Z,-9.89
2022-12-13T05:37:07.306Z,-9.90
2022-12-13T05:38:09.969Z,-9.91
2022-12-13T05:39:34.861Z,-9.94
2022-12-13T05:40:39.437Z,-9.98
2022-12-13T05:41:46.761Z,-9.91
2022-12-13T05:43:00.944Z,-9.88
2022-12-13T05:44:07.116Z,-9.93
2022-12-13T05:45:13.671Z,-9.89
2022-12-13T05:46:24.925Z,-9.81
2022-12-13T05:47:33.071Z,-9.76
2022-12-13T05:48:40.454Z,-9.80
2022-12-13T05:49:43.158Z,-9.82
2022-12-13T05:50:51.043Z,-9.80
2022-12-13T05:52:00.294Z,-9.76
2022-12-13T05:53:08.871Z,-9.81
2022-12-13T05:54:17.754Z,-9.77
2022-12-13T05:55:26.211Z,-9.75
2022-12-13T05:56:34.073Z,-9.72
2022-12-13T05:57:39.242Z,-9.80
2022-12-13T05:58:43.452Z,-9.78
2022-12-13T05:59:48.611Z,-9.84
2022-12-13T06:00:54.949Z,-9.85
2022-12-13T06:02:18.291Z,-9.85
2022-12-13T06:03:33.902Z,-9.86
2022-12-13T06:04:42.136Z,-9.86
2022-12-13T06:05:58.787Z,-9.79
2022-12-13T06:07:12.285Z,-9.71
2022-12-13T06:08:24.351Z,-9.81
2022-12-13T06:09:39.998Z,-9.79
2022-12-13T06:10:47.820Z,-9.83
2022-12-13T06:12:02.395Z,-9.90
2022-12-13T06:13:21.698Z,-9.89
2022-12-13T06:14:30.604Z,-9.87
2022-12-13T06:15:36.010Z,-9.93
2022-12-13T06:16:49.758Z,-9.91
2022-12-13T06:17:53.626Z,-9.91
2022-12-13T06:19:04.602Z,-9.94
2022-12-13T06:20:23.409Z,-9.95
2022-12-13T06:21:43.971Z,-9.97
2022-12-13T06:22:56.497Z,-9.96
2022-12-13T06:24:01.242Z,-9.92
2022-12-13T06:25:06.924Z,-9.87
2022-12-13T06:26:36.450Z,-9.88
2022-12-13T06:27:41.438Z,-9.93
2022-12-13T06:28:48.504Z,-9.89
2022-12-13T06:29:56.140Z,-9.92
2022-12-13T06:31:00.871Z,-9.89
2022-12-13T06:32:06.997Z,-9.84
2022-12-13T06:33:11.339Z,-9.93
2022-12-13T06:34:18.506Z,-9.94
2022-12-13T06:35:28.914Z,-9.93
2022-12-13T06:36:35.096Z,-9.88
2022-12-13T06:37:42.440Z,-9.92
2022-12-13T06:38:50.150Z,-9.89
2022-12-13T06:39:55.086Z,-9.90
2022-12-13T06:41:09.718Z,-9.97
2022-12-13T06:42:21.962Z,-9.99
2022-12-13T06:43:25.141Z,-9.99
2022-12-13T06:44:30.232Z,-10.05
2022-12-13T06:45:32.623Z,-10.02
2022-12-13T06:46:40.991Z,-10.00
2022-12-13T06:47:46.263Z,-9.96
2022-12-13T06:48:51.128Z,-9.94
2022-12-13T06:49:53.414Z,-9.92
2022-12-13T06:50:58.360Z,-9.88
2022-12-13T06:52:03.847Z,-9.84
2022-12-13T06:53:12.527Z,-9.84
2022-12-13T06:54:21.548Z,-9.85
2022-12-13T06:55:27.017Z,-9.80
2022-12-13T06:56:33.198Z,-9.81
2022-12-13T06:57:35.652Z,-9.81
2022-12-13T06:58:41.041Z,-9.81
2022-12-13T06:59:45.920Z,-9.86
2022-12-13T07:00:49.599Z,-9.84
2022-12-13T07:01:54.834Z,-9.87
2022-12-13T07:03:09.086Z,-9.83
2022-12-13T07:04:29.657Z,-9.84
2022-12-13T07:05:36.839Z,-9.81
2022-12-13T07:06:48.473Z,-9.84
2022-12-13T07:08:01.480Z,-9.93
2022-12-13T07:09:09.998Z,-9.95
2022-12-13T07:10:21.869Z,-10.01
2022-12-13T07:11:30.657Z,-10.09
2022-12-13T07:12:37.946Z,-10.10
2022-12-13T07:14:05.055Z,-10.11
2022-12-13T07:15:17.627Z,-10.08
2022-12-13T07:16:27.285Z,-10.08
2022-12-13T07:17:50.604Z,-10.13
2022-12-13T07:19:22.899Z,-10.20
2022-12-13T07:20:29.326Z,-10.17
2022-12-13T07:21:32.343Z,-10.19
2022-12-13T07:22:48.467Z,-10.23
2022-12-13T07:25:38.424Z,-10.18
2022-12-13T07:26:43.358Z,-10.14
2022-12-13T07:27:45.519Z,-10.08
2022-12-13T07:28:55.426Z,-10.08
2022-12-13T07:30:00.905Z,-10.08
2022-12-13T07:31:07.621Z,-10.08
2022-12-13T07:32:14.618Z,-10.03
2022-12-13T07:33:22.203Z,-10.08
2022-12-13T07:34:29.390Z,-10.04
2022-12-13T07:35:36.962Z,-10.02
2022-12-13T07:36:42.393Z,-10.00
2022-12-13T07:37:47.265Z,-9.98
2022-12-13T07:38:55.163Z,-9.94
2022-12-13T07:40:03.992Z,-9.90
2022-12-13T07:41:12.912Z,-9.83
2022-12-13T07:42:29.829Z,-9.83
2022-12-13T07:43:35.115Z,-9.73
2022-12-13T07:44:39.777Z,-9.73
2022-12-13T07:45:44.561Z,-9.62
2022-12-13T07:46:49.286Z,-9.58
2022-12-13T07:47:54.300Z,-9.54
2022-12-13T07:49:01.563Z,-9.53
2022-12-13T07:50:07.191Z,-9.50
2022-12-13T07:51:30.153Z,-9.52
2022-12-13T07:52:34.915Z,-9.47
2022-12-13T07:53:39.839Z,-9.37
2022-12-13T07:54:44.466Z,-9.31
2022-12-13T07:55:46.590Z,-9.32
2022-12-13T07:56:53.859Z,-9.30
2022-12-13T07:57:58.632Z,-9.29
2022-12-13T07:59:08.979Z,-9.28
2022-12-13T08:00:15.215Z,-9.24
2022-12-13T08:01:20.182Z,-9.21
2022-12-13T08:02:25.039Z,-9.19
2022-12-13T08:03:30.241Z,-9.21
2022-12-13T08:04:37.920Z,-9.19
2022-12-13T08:05:43.185Z,-9.20
2022-12-13T08:06:48.139Z,-9.17
2022-12-13T08:07:53.145Z,-9.09
2022-12-13T08:08:58.860Z,-9.15
2022-12-13T08:10:03.601Z,-9.15
2022-12-13T08:11:11.746Z,-9.14
2022-12-13T08:12:22.592Z,-9.16
2022-12-13T08:13:27.772Z,-9.08
2022-12-13T08:14:35.375Z,-9.08
2022-12-13T08:15:43.279Z,-9.01
2022-12-13T08:16:50.856Z,-8.98
2022-12-13T08:18:00.946Z,-8.99
2022-12-13T08:19:05.692Z,-8.97
2022-12-13T08:20:09.152Z,-8.91
2022-12-13T08:21:51.751Z,-8.89
2022-12-13T08:22:39.359Z,-8.80
2022-12-13T08:25:45.158Z,-8.72
2022-12-13T08:26:47.490Z,-8.70
2022-12-13T08:27:55.537Z,-8.66
2022-12-13T08:29:07.647Z,-8.66
2022-12-13T08:30:20.490Z,-8.62
2022-12-13T08:31:33.962Z,-8.62
2022-12-13T08:32:39.064Z,-8.50
2022-12-13T08:33:46.989Z,-8.30
2022-12-13T08:34:52.256Z,-8.13
2022-12-13T08:35:54.515Z,-7.96
2022-12-13T08:37:01.898Z,-7.82
2022-12-13T08:38:09.677Z,-7.62
2022-12-13T08:39:14.565Z,-7.43
2022-12-13T08:40:19.871Z,-7.19
2022-12-13T08:41:24.828Z,-6.88
2022-12-13T08:42:29.692Z,-6.64
2022-12-13T08:43:37.016Z,-6.30
2022-12-13T08:44:41.779Z,-6.16
2022-12-13T08:45:46.624Z,-5.98
2022-12-13T08:46:52.451Z,-5.97
2022-12-13T08:47:59.970Z,-5.68
2022-12-13T08:49:04.849Z,-5.59
2022-12-13T08:50:10.748Z,-5.30
2022-12-13T08:51:24.706Z,-5.31
2022-12-13T08:52:31.221Z,-5.05
2022-12-13T08:53:40.712Z,-5.03
2022-12-13T08:54:44.867Z,-5.03
2022-12-13T08:55:49.963Z,-5.13
2022-12-13T08:56:54.732Z,-5.14
2022-12-13T08:58:02.353Z,-4.52
2022-12-13T08:59:09.785Z,-4.46
2022-12-13T09:00:18.009Z,-4.33
2022-12-13T09:01:22.984Z,-4.22
2022-12-13T09:02:27.976Z,-3.68
2022-12-13T09:03:32.908Z,-3.54
2022-12-13T09:04:37.595Z,-3.33
2022-12-13T09:05:42.614Z,-3.20
2022-12-13T09:06:47.453Z,-3.03
2022-12-13T09:07:52.144Z,-3.02
2022-12-13T09:08:57.312Z,-2.60
2022-12-13T09:10:07.019Z,-2.45
2022-12-13T09:11:36.405Z,-1.90
2022-12-13T09:12:46.294Z,-1.51
2022-12-13T09:13:52.351Z,-1.09
2022-12-13T09:15:22.226Z,-0.63
2022-12-13T09:16:29.207Z,-0.35
2022-12-13T09:17:41.238Z,-0.43
2022-12-13T09:18:46.443Z,-0.46
2022-12-13T09:20:02.879Z,0.02
2022-12-13T09:21:22.305Z,0.32
2022-12-13T09:23:01.871Z,0.94
2022-12-13T09:24:37.247Z,1.21
2022-12-13T09:26:18.351Z,1.33
2022-12-13T09:28:02.671Z,1.74
2022-12-13T09:30:54.467Z,0.95
2022-12-13T09:32:29.738Z,1.07
2022-12-13T09:40:25.965Z,1.32
2022-12-13T09:42:10.595Z,1.81
2022-12-13T09:43:43.298Z,1.31
2022-12-13T09:45:02.190Z,1.46
2022-12-13T09:46:44.915Z,1.98
2022-12-13T09:47:52.294Z,2.19
2022-12-13T09:49:13.311Z,2.24
2022-12-13T09:50:25.563Z,2.24
2022-12-13T09:51:43.123Z,2.04
2022-12-13T09:52:50.323Z,1.85
2022-12-13T09:53:57.453Z,1.81
2022-12-13T09:55:04.393Z,1.74
2022-12-13T09:56:13.081Z,1.82
2022-12-13T09:57:34.911Z,1.88
2022-12-13T09:58:42.730Z,2.19
2022-12-13T09:59:47.992Z,2.31
2022-12-13T10:01:00.101Z,2.34
2022-12-13T10:02:28.960Z,2.28
2022-12-13T10:03:34.914Z,2.39
2022-12-13T10:04:42.281Z,2.16
2022-12-13T10:05:50.902Z,2.70
2022-12-13T10:06:59.027Z,2.79
2022-12-13T10:08:08.901Z,2.68
2022-12-13T10:09:16.909Z,2.68
2022-12-13T10:10:23.325Z,2.12
2022-12-13T10:11:32.237Z,1.46
2022-12-13T10:12:37.843Z,1.86
2022-12-13T10:13:45.927Z,1.96
2022-12-13T10:14:54.732Z,1.74
2022-12-13T10:16:04.095Z,1.86
2022-12-13T10:17:20.834Z,1.84
2022-12-13T10:18:34.329Z,1.26
2022-12-13T10:19:42.816Z,1.63
2022-12-13T10:20:47.739Z,1.83
2022-12-13T10:21:51.695Z,1.66
2022-12-13T10:23:31.612Z,1.79
2022-12-13T10:24:31.505Z,1.70
2022-12-13T10:26:03.786Z,1.64
2022-12-13T10:27:16.905Z,1.84
2022-12-13T10:28:27.328Z,1.96
2022-12-13T10:29:32.061Z,2.16
2022-12-13T10:30:46.197Z,1.95
2022-12-13T10:31:54.356Z,1.71
2022-12-13T10:33:03.862Z,1.29
2022-12-13T10:34:08.978Z,1.57
2022-12-13T10:35:29.162Z,1.58
2022-12-13T10:36:38.592Z,1.37
2022-12-13T10:37:43.717Z,1.33
2022-12-13T10:38:49.479Z,1.43
2022-12-13T10:39:51.587Z,1.34
2022-12-13T10:40:56.666Z,0.84
2022-12-13T10:42:07.689Z,0.90
2022-12-13T10:43:17.410Z,0.68
2022-12-13T10:44:22.823Z,0.84
2022-12-13T10:45:28.065Z,0.86
2022-12-13T10:46:38.530Z,0.96
2022-12-13T10:47:48.897Z,0.94
2022-12-13T10:48:56.359Z,1.02
2022-12-13T10:50:02.525Z,1.00
2022-12-13T10:51:09.789Z,0.76
2022-12-13T10:52:31.533Z,0.60
2022-12-13T10:53:47.361Z,0.70
2022-12-13T10:54:53.680Z,1.00
2022-12-13T10:56:07.087Z,1.25
2022-12-13T10:57:14.667Z,1.40
2022-12-13T10:58:22.487Z,1.37
2022-12-13T10:59:30.385Z,1.32
2022-12-13T11:00:39.734Z,1.66
2022-12-13T11:03:36.797Z,1.38
2022-12-13T11:04:44.697Z,1.36
2022-12-13T11:05:51.245Z,1.48
2022-12-13T11:06:56.409Z,1.52
2022-12-13T11:08:16.692Z,1.41
2022-12-13T11:09:26.971Z,1.49
2022-12-13T11:10:32.551Z,1.22
2022-12-13T11:11:37.331Z,1.04
2022-12-13T11:12:43.456Z,0.79
2022-12-13T11:13:50.475Z,0.79
2022-12-13T11:14:59.606Z,1.08
2022-12-13T11:16:02.324Z,1.11
2022-12-13T11:17:12.405Z,0.70
2022-12-13T11:18:25.177Z,0.62
2022-12-13T11:19:39.349Z,0.58
2022-12-13T11:20:59.601Z,0.52
2022-12-13T11:22:04.626Z,0.33
2022-12-13T11:23:19.275Z,0.52
2022-12-13T11:24:28.216Z,0.57
2022-12-13T11:25:38.720Z,0.35
2022-12-13T11:26:48.780Z,0.09
2022-12-13T11:28:06.116Z,0.18
2022-12-13T11:29:51.377Z,0.74
2022-12-13T11:31:07.309Z,0.92
2022-12-13T11:32:22.894Z,0.65
2022-12-13T11:33:48.016Z,0.83
2022-12-13T11:35:02.869Z,0.70
2022-12-13T11:36:22.183Z,0.77
2022-12-13T11:37:31.954Z,0.69
2022-12-13T11:38:57.647Z,0.74
2022-12-13T11:40:08.221Z,0.55
2022-12-13T11:41:31.473Z,0.15
2022-12-13T11:42:44.384Z,0.24
2022-12-13T11:43:58.199Z,-0.26
2022-12-13T11:45:23.164Z,0.08
2022-12-13T11:46:38.502Z,-0.01
2022-12-13T11:47:49.285Z,0.25
2022-12-13T11:48:59.327Z,0.15
2022-12-13T11:50:08.541Z,0.12
2022-12-13T11:51:22.685Z,0.10
2022-12-13T11:52:32.094Z,0.25
2022-12-13T11:53:42.602Z,0.17
2022-12-13T11:54:54.532Z,0.24
2022-12-13T11:56:06.433Z,-0.21
2022-12-13T11:57:20.810Z,0.06
2022-12-13T11:59:01.193Z,-0.04
2022-12-13T12:00:02.651Z,0.01
2022-12-13T12:01:13.716Z,-0.24
2022-12-13T12:02:26.092Z,0.03
2022-12-13T12:03:40.299Z,-0.08
2022-12-13T12:04:56.598Z,-0.07
2022-12-13T12:06:12.372Z,-0.12
2022-12-13T12:07:32.930Z,-0.05
2022-12-13T12:08:44.250Z,-0.41
2022-12-13T12:09:57.016Z,-0.74
2022-12-13T12:11:11.134Z,-0.34
2022-12-13T12:12:21.983Z,-0.18
2022-12-13T12:13:33.506Z,-0.34
2022-12-13T12:14:44.699Z,-0.43
2022-12-13T12:15:55.465Z,-0.63
2022-12-13T12:17:02.047Z,-0.35
2022-12-13T12:18:04.380Z,-0.56
2022-12-13T12:19:16.210Z,-0.66
2022-12-13T12:20:28.638Z,-0.48
2022-12-13T12:22:12.819Z,-0.54
2022-12-13T12:23:25.853Z,-0.61
2022-12-13T12:24:40.303Z,-0.45
2022-12-13T12:25:52.058Z,-0.37
2022-12-13T12:27:09.692Z,-0.43
2022-12-13T12:28:28.874Z,-0.37
2022-12-13T12:30:03.467Z,-0.52
2022-12-13T12:31:18.531Z,-0.50
2022-12-13T12:32:36.430Z,-0.34
2022-12-13T12:36:28.515Z,0.03
2022-12-13T12:37:54.689Z,-0.27
2022-12-13T12:42:03.528Z,-0.27
2022-12-13T12:43:43.095Z,-0.55
2022-12-13T12:46:01.020Z,-0.18
2022-12-13T12:49:12.432Z,-0.61
2022-12-13T12:50:35.898Z,-0.39
2022-12-13T12:51:50.845Z,-0.47
2022-12-13T12:53:05.065Z,-0.58
2022-12-13T12:54:37.836Z,-0.72
2022-12-13T12:56:27.883Z,-0.75
2022-12-13T12:58:32.213Z,-1.00
2022-12-13T13:00:14.552Z,-0.84
2022-12-13T13:01:54.746Z,-0.80
2022-12-13T13:03:54.293Z,-0.79
2022-12-13T13:05:33.793Z,-0.73
2022-12-13T13:07:40.455Z,-1.04
2022-12-13T13:09:10.336Z,-0.98
2022-12-13T13:13:33.407Z,-0.82
2022-12-13T13:17:58.210Z,-0.28
2022-12-13T13:22:03.073Z,-0.27
2022-12-13T13:23:40.564Z,-0.16
2022-12-13T13:24:42.516Z,-0.21
2022-12-13T13:27:34.259Z,-0.81
2022-12-13T13:28:41.954Z,-1.04
2022-12-13T13:29:48.404Z,-0.93
2022-12-13T13:31:13.447Z,-0.97
2022-12-13T13:32:34.503Z,-1.07
2022-12-13T13:33:56.582Z,-1.03
2022-12-13T13:35:31.931Z,-0.91
2022-12-13T13:36:52.824Z,-0.82
2022-12-13T13:38:00.346Z,-1.05
2022-12-13T13:39:19.708Z,-1.06
2022-12-13T13:40:34.788Z,-1.20
2022-12-13T13:41:44.585Z,-1.21
2022-12-13T13:43:16.318Z,-1.35
2022-12-13T13:44:53.423Z,-1.59
2022-12-13T13:46:10.973Z,-1.75
2022-12-13T13:47:14.880Z,-1.78
2022-12-13T13:48:36.972Z,-1.74
2022-12-13T13:49:44.192Z,-1.98
2022-12-13T13:51:12.825Z,-2.04
2022-12-13T13:52:25.270Z,-2.28
2022-12-13T13:53:56.536Z,-2.27
2022-12-13T13:55:38.897Z,-2.30
2022-12-13T13:57:12.714Z,-2.44
2022-12-13T13:58:58.185Z,-2.64
2022-12-13T14:00:21.496Z,-2.73
2022-12-13T14:02:02.940Z,-2.82
2022-12-13T14:03:54.079Z,-2.76
2022-12-13T14:05:43.417Z,-2.90
2022-12-13T14:07:26.629Z,-2.87
2022-12-13T14:08:45.402Z,-2.98
2022-12-13T14:10:17.592Z,-3.11
2022-12-13T14:11:45.993Z,-3.20
2022-12-13T14:13:20.600Z,-3.41
2022-12-13T14:15:09.775Z,-3.56
2022-12-13T14:16:57.200Z,-3.40
2022-12-13T14:18:52.845Z,-3.46
2022-12-13T14:20:24.595Z,-3.63
2022-12-13T14:21:52.807Z,-3.65
2022-12-13T14:23:04.468Z,-3.84
2022-12-13T14:24:29.525Z,-3.77
2022-12-13T14:25:52.801Z,-3.85
2022-12-13T14:27:13.356Z,-3.94
2022-12-13T14:28:26.160Z,-4.00
2022-12-13T14:29:34.728Z,-4.08
2022-12-13T14:30:48.073Z,-4.13
2022-12-13T14:32:02.741Z,-4.24
2022-12-13T14:33:07.590Z,-4.29
2022-12-13T14:34:23.968Z,-4.36
2022-12-13T14:35:32.715Z,-4.40
2022-12-13T14:36:42.979Z,-4.39
2022-12-13T14:37:59.799Z,-4.40
2022-12-13T14:39:25.041Z,-4.46
2022-12-13T14:40:34.608Z,-4.62
2022-12-13T14:41:48.563Z,-4.64
2022-12-13T14:43:05.288Z,-4.62
2022-12-13T14:44:25.724Z,-4.65
2022-12-13T14:45:32.977Z,-4.68
2022-12-13T14:46:35.184Z,-4.76
2022-12-13T14:47:43.087Z,-4.86
2022-12-13T14:48:52.409Z,-4.92
2022-12-13T14:50:01.408Z,-4.90
2022-12-13T14:51:07.495Z,-4.90
2022-12-13T14:52:26.142Z,-4.96
2022-12-13T14:53:37.857Z,-5.13
2022-12-13T14:54:51.788Z,-5.17
2022-12-13T14:56:11.539Z,-5.18
2022-12-13T14:57:35.467Z,-5.29
2022-12-13T14:58:52.625Z,-5.34
2022-12-13T14:59:59.075Z,-5.44
2022-12-13T15:01:04.131Z,-5.38
2022-12-13T15:02:09.273Z,-5.38
2022-12-13T15:03:25.923Z,-5.43
2022-12-13T15:04:33.066Z,-5.38
2022-12-13T15:05:51.045Z,-5.40
2022-12-13T15:06:59.919Z,-5.42
2022-12-13T15:08:10.515Z,-5.41
2022-12-13T15:09:17.691Z,-5.44
2022-12-13T15:10:25.386Z,-5.51
2022-12-13T15:11:33.505Z,-5.48
2022-12-13T15:12:38.529Z,-5.58
2022-12-13T15:13:47.678Z,-5.63
2022-12-13T15:14:55.929Z,-5.69
2022-12-13T15:16:10.744Z,-5.72
2022-12-13T15:17:30.834Z,-5.67
2022-12-13T15:18:36.430Z,-5.79
2022-12-13T15:19:48.910Z,-5.79
2022-12-13T15:20:56.140Z,-5.83
2022-12-13T15:22:04.150Z,-5.84
2022-12-13T15:23:15.861Z,-5.92
2022-12-13T15:24:29.526Z,-5.91
2022-12-13T15:25:36.884Z,-5.94
2022-12-13T15:26:43.374Z,-5.91
2022-12-13T15:27:52.029Z,-5.88
2022-12-13T15:29:01.463Z,-5.99
2022-12-13T15:30:17.088Z,-6.00
2022-12-13T15:31:22.618Z,-6.01
2022-12-13T15:32:27.406Z,-6.01
2022-12-13T15:33:36.815Z,-6.11
2022-12-13T15:34:44.154Z,-6.11
2022-12-13T15:35:50.824Z,-6.13
2022-12-13T15:36:55.720Z,-6.06
2022-12-13T15:38:00.901Z,-6.11
2022-12-13T15:39:05.998Z,-6.17
2022-12-13T15:40:12.755Z,-6.14
2022-12-13T15:41:20.752Z,-6.11
2022-12-13T15:42:28.798Z,-6.09
2022-12-13T15:43:39.313Z,-6.15
2022-12-13T15:44:50.570Z,-6.25
2022-12-13T15:45:56.504Z,-6.23
2022-12-13T15:47:05.782Z,-6.33
2022-12-13T15:48:25.137Z,-6.34
2022-12-13T15:49:34.640Z,-6.37
2022-12-13T15:50:47.145Z,-6.40
2022-12-13T15:51:58.568Z,-6.37
2022-12-13T15:53:06.568Z,-6.33
2022-12-13T15:54:22.840Z,-6.26
2022-12-13T15:55:44.003Z,-6.28
2022-12-13T15:57:06.073Z,-6.35
2022-12-13T15:58:28.665Z,-6.36
2022-12-13T15:59:38.373Z,-6.40
2022-12-13T16:00:51.818Z,-6.41
2022-12-13T16:01:58.643Z,-6.39
2022-12-13T16:03:10.377Z,-6.41
2022-12-13T16:04:25.297Z,-6.36
2022-12-13T16:05:34.344Z,-6.45
2022-12-13T16:10:26.808Z,-6.37
2022-12-13T16:11:35.361Z,-6.38
2022-12-13T16:12:53.445Z,-6.36
2022-12-13T16:14:30.920Z,-6.38
2022-12-13T16:15:59.753Z,-6.43
2022-12-13T16:18:57.791Z,-6.40
2022-12-13T16:20:06.012Z,-6.41